createdAt,value
2018-12-15T00:01:56.780Z,78.86
2018-12-15T00:04:24.168Z,80.14
2018-12-15T00:06:51.576Z,81.79
2018-12-15T00:09:19.020Z,81.80
2018-12-15T00:11:46.428Z,80.86
2018-12-15T00:14:13.913Z,81.10
2018-12-15T00:16:41.347Z,80.07
2018-12-15T00:19:08.751Z,81.75
2018-12-15T00:21:36.146Z,81.75
2018-12-15T00:24:03.685Z,83.93
2018-12-15T00:26:31.080Z,82.03
2018-12-15T00:28:58.468Z,80.17
2018-12-15T00:31:25.876Z,83.23
2018-12-15T00:33:53.286Z,84.41
2018-12-15T00:36:20.692Z,81.00
2018-12-15T00:38:48.087Z,80.22
2018-12-15T00:41:15.482Z,80.87
2018-12-15T00:43:42.877Z,83.04
2018-12-15T00:46:10.272Z,80.38
2018-12-15T00:48:37.726Z,81.67
2018-12-15T00:51:05.166Z,81.77
2018-12-15T00:53:32.597Z,80.68
2018-12-15T00:56:00.009Z,81.03
2018-12-15T00:58:27.456Z,80.37
2018-12-15T01:00:54.872Z,79.60
2018-12-15T01:03:22.260Z,80.00
2018-12-15T01:05:49.657Z,80.94
2018-12-15T01:08:17.116Z,81.05
2018-12-15T01:10:44.548Z,81.90
2018-12-15T01:13:11.948Z,80.45
2018-12-15T01:15:45.224Z,81.71
2018-12-15T01:18:13.524Z,80.64
2018-12-15T01:20:40.929Z,80.42
2018-12-15T01:23:08.320Z,77.83
2018-12-15T01:25:35.720Z,79.62
2018-12-15T01:28:03.116Z,80.76
2018-12-15T01:30:30.522Z,79.77
2018-12-15T01:32:57.917Z,80.87
2018-12-15T01:35:25.328Z,80.88
2018-12-15T01:37:52.776Z,80.54
2018-12-15T01:40:20.160Z,80.70
2018-12-15T01:42:47.565Z,79.97
2018-12-15T01:45:14.952Z,80.59
2018-12-15T01:47:42.356Z,82.53
2018-12-15T01:50:09.810Z,80.15
2018-12-15T01:52:37.199Z,78.59
2018-12-15T01:55:04.724Z,79.27
2018-12-15T01:57:32.111Z,78.90
2018-12-15T01:59:59.505Z,78.57
2018-12-15T02:02:26.951Z,78.95
2018-12-15T02:04:54.356Z,79.85
2018-12-15T02:07:21.784Z,79.46
2018-12-15T02:09:49.220Z,78.76
2018-12-15T02:12:16.614Z,79.02
2018-12-15T02:14:44.021Z,80.17
2018-12-15T02:17:11.416Z,79.39
2018-12-15T02:19:38.808Z,80.03
2018-12-15T02:22:06.212Z,80.38
2018-12-15T02:24:33.620Z,79.13
2018-12-15T02:27:01.008Z,79.98
2018-12-15T02:29:28.411Z,78.93
2018-12-15T02:31:55.805Z,79.46
2018-12-15T02:34:23.211Z,80.30
2018-12-15T02:36:50.601Z,80.14
2018-12-15T02:39:18.009Z,79.86
2018-12-15T02:41:47.340Z,81.23
2018-12-15T02:44:14.853Z,81.64
2018-12-15T02:46:42.262Z,80.47
2018-12-15T02:49:09.743Z,80.73
2018-12-15T02:51:37.144Z,80.09
2018-12-15T02:54:04.562Z,80.42
2018-12-15T02:56:31.946Z,79.87
2018-12-15T02:58:59.339Z,79.10
2018-12-15T03:01:26.741Z,79.01
2018-12-15T03:03:54.129Z,79.87
2018-12-15T03:06:21.517Z,79.74
2018-12-15T03:08:48.926Z,79.75
2018-12-15T03:11:16.364Z,79.83
2018-12-15T03:13:43.760Z,78.85
2018-12-15T03:16:11.167Z,78.76
2018-12-15T03:18:38.566Z,80.89
2018-12-15T03:21:05.949Z,79.95
2018-12-15T03:23:33.412Z,82.12
2018-12-15T03:26:00.806Z,81.43
2018-12-15T03:28:28.201Z,81.28
2018-12-15T03:30:55.620Z,80.20
2018-12-15T03:33:23.106Z,82.41
2018-12-15T03:35:50.495Z,81.27
2018-12-15T03:38:17.901Z,82.38
2018-12-15T03:40:45.388Z,82.58
2018-12-15T03:43:12.780Z,81.92
2018-12-15T03:45:40.186Z,83.01
2018-12-15T03:48:07.617Z,81.84
2018-12-15T03:50:35.017Z,81.58
2018-12-15T03:53:02.516Z,81.61
2018-12-15T03:55:29.915Z,82.26
2018-12-15T03:57:57.397Z,80.79
2018-12-15T04:00:24.800Z,81.15
2018-12-15T04:02:52.205Z,83.12
2018-12-15T04:05:19.677Z,81.74
2018-12-15T04:07:47.085Z,81.21
2018-12-15T04:10:14.477Z,80.14
2018-12-15T04:12:41.873Z,80.55
2018-12-15T04:15:09.292Z,79.83
2018-12-15T04:17:36.698Z,81.20
2018-12-15T04:20:04.691Z,82.61
2018-12-15T04:22:32.185Z,81.67
2018-12-15T04:24:59.581Z,81.58
2018-12-15T04:27:27.057Z,82.89
2018-12-15T04:29:54.464Z,81.52
2018-12-15T04:32:21.857Z,82.35
2018-12-15T04:34:49.252Z,82.77
2018-12-15T04:37:16.667Z,81.53
2018-12-15T04:39:44.148Z,82.98
2018-12-15T04:42:11.537Z,82.47
2018-12-15T04:44:38.950Z,80.89
2018-12-15T04:47:06.703Z,83.50
2018-12-15T04:49:34.177Z,82.14
2018-12-15T04:52:01.566Z,81.47
2018-12-15T04:54:28.964Z,81.43
2018-12-15T04:56:56.366Z,82.77
2018-12-15T04:59:23.781Z,81.11
2018-12-15T05:01:51.241Z,82.36
2018-12-15T05:04:18.633Z,81.88
2018-12-15T05:06:46.045Z,80.25
2018-12-15T05:09:13.438Z,83.96
2018-12-15T05:11:40.836Z,84.42
2018-12-15T05:14:08.240Z,82.49
2018-12-15T05:16:35.639Z,81.04
2018-12-15T05:19:03.032Z,80.96
2018-12-15T05:21:30.441Z,79.84
2018-12-15T05:23:57.841Z,80.45
2018-12-15T05:26:25.236Z,80.92
2018-12-15T05:28:52.643Z,81.10
2018-12-15T05:31:20.041Z,81.26
2018-12-15T05:33:47.436Z,81.21
2018-12-15T05:36:14.846Z,85.16
2018-12-15T05:38:42.249Z,84.87
2018-12-15T05:41:09.653Z,83.67
2018-12-15T05:43:37.144Z,82.21
2018-12-15T05:46:04.585Z,82.93
2018-12-15T05:48:31.981Z,85.58
2018-12-15T05:50:59.396Z,82.71
2018-12-15T05:53:26.794Z,82.44
2018-12-15T05:55:54.185Z,82.30
2018-12-15T05:58:21.602Z,83.15
2018-12-15T06:00:48.998Z,82.90
2018-12-15T06:03:16.389Z,82.50
2018-12-15T06:05:43.803Z,82.19
2018-12-15T06:08:11.193Z,81.24
2018-12-15T06:10:38.633Z,80.28
2018-12-15T06:13:06.046Z,81.04
2018-12-15T06:15:33.441Z,80.52
2018-12-15T06:18:00.836Z,82.71
2018-12-15T06:20:28.249Z,82.23
2018-12-15T06:22:55.634Z,82.84
2018-12-15T06:25:23.032Z,83.46
2018-12-15T06:27:50.436Z,81.62
2018-12-15T06:30:17.830Z,82.08
2018-12-15T06:32:48.161Z,82.72
2018-12-15T06:35:15.593Z,82.35
2018-12-15T06:37:42.984Z,83.68
2018-12-15T06:40:10.435Z,82.16
2018-12-15T06:42:37.841Z,83.01
2018-12-15T06:45:05.925Z,80.94
2018-12-15T06:47:33.321Z,83.36
2018-12-15T06:50:00.730Z,82.23
2018-12-15T06:52:28.135Z,81.11
2018-12-15T06:54:55.530Z,81.51
2018-12-15T06:57:22.943Z,82.56
2018-12-15T06:59:50.340Z,83.81
2018-12-15T07:02:17.780Z,84.93
2018-12-15T07:04:45.193Z,82.61
2018-12-15T07:07:12.592Z,80.88
2018-12-15T07:09:39.980Z,83.27
2018-12-15T07:12:07.489Z,82.41
2018-12-15T07:14:34.885Z,83.04
2018-12-15T07:17:02.280Z,84.20
2018-12-15T07:19:29.692Z,86.02
2018-12-15T07:21:57.092Z,84.06
2018-12-15T07:24:24.492Z,84.71
2018-12-15T07:26:51.904Z,84.13
2018-12-15T07:29:19.393Z,82.09
2018-12-15T07:31:46.798Z,80.77
2018-12-15T07:34:14.209Z,81.72
2018-12-15T07:36:41.648Z,82.19
2018-12-15T07:39:09.037Z,82.12
2018-12-15T07:41:36.541Z,82.56
2018-12-15T07:44:04.036Z,83.00
2018-12-15T07:46:31.429Z,81.80
2018-12-15T07:48:58.855Z,81.59
2018-12-15T07:51:26.427Z,82.25
2018-12-15T07:53:53.825Z,81.15
2018-12-15T07:59:04.136Z,81.34
2018-12-15T08:01:31.544Z,81.63
2018-12-15T08:03:58.988Z,81.52
2018-12-15T08:06:26.441Z,79.86
2018-12-15T08:08:53.857Z,80.17
2018-12-15T08:11:26.777Z,79.00
2018-12-15T08:13:56.142Z,79.35
2018-12-15T08:16:23.537Z,79.02
2018-12-15T08:18:50.934Z,78.54
2018-12-15T08:21:18.344Z,78.24
2018-12-15T08:23:45.766Z,77.71
2018-12-15T08:26:13.265Z,77.53
2018-12-15T08:28:40.683Z,77.93
2018-12-15T08:31:08.096Z,77.86
2018-12-15T08:33:35.481Z,77.83
2018-12-15T08:36:02.888Z,78.87
2018-12-15T08:38:30.288Z,78.70
2018-12-15T08:40:57.739Z,78.75
2018-12-15T08:43:25.145Z,77.49
2018-12-15T08:45:52.533Z,76.66
2018-12-15T08:48:20.012Z,77.77
2018-12-15T08:50:47.584Z,78.93
2018-12-15T08:53:15.028Z,78.53
2018-12-15T08:55:42.429Z,77.96
2018-12-15T08:58:09.844Z,78.17
2018-12-15T09:00:37.288Z,78.52
2018-12-15T09:03:04.683Z,77.46
2018-12-15T09:05:32.085Z,78.66
2018-12-15T09:07:59.480Z,77.48
2018-12-15T09:10:26.876Z,76.63
2018-12-15T09:12:54.279Z,76.69
2018-12-15T09:15:21.725Z,76.37
2018-12-15T09:17:49.123Z,76.66
2018-12-15T09:20:16.573Z,75.49
2018-12-15T09:22:44.011Z,77.79
2018-12-15T09:25:11.401Z,76.40
2018-12-15T09:27:38.815Z,77.23
2018-12-15T09:30:06.713Z,77.01
2018-12-15T09:32:34.189Z,78.43
2018-12-15T09:35:01.600Z,78.09
2018-12-15T09:37:29.041Z,79.69
2018-12-15T09:39:56.508Z,79.10
2018-12-15T09:42:23.925Z,79.19
2018-12-15T09:44:51.330Z,79.26
2018-12-15T09:47:18.805Z,79.83
2018-12-15T09:49:46.301Z,81.40
2018-12-15T09:52:13.745Z,79.32
2018-12-15T09:54:42.680Z,78.88
2018-12-15T09:57:10.136Z,76.18
2018-12-15T09:59:37.535Z,76.62
2018-12-15T10:02:04.987Z,77.80
2018-12-15T10:04:32.386Z,76.10
2018-12-15T10:06:59.787Z,75.61
2018-12-15T10:09:27.172Z,76.19
2018-12-15T10:11:54.580Z,76.28
2018-12-15T10:14:21.987Z,76.38
2018-12-15T10:16:49.376Z,77.29
2018-12-15T10:19:16.801Z,77.09
2018-12-15T10:21:44.196Z,75.95
2018-12-15T10:24:11.585Z,75.29
2018-12-15T10:26:39.002Z,74.24
2018-12-15T10:29:08.352Z,74.82
2018-12-15T10:31:41.418Z,75.56
2018-12-15T10:34:08.817Z,76.64
2018-12-15T10:36:36.237Z,77.75
2018-12-15T10:39:06.744Z,76.14
2018-12-15T10:41:34.153Z,75.20
2018-12-15T10:44:01.553Z,74.67
2018-12-15T10:46:28.944Z,76.27
2018-12-15T10:48:56.348Z,76.54
2018-12-15T10:51:23.837Z,75.65
2018-12-15T10:53:51.235Z,75.79
2018-12-15T10:56:18.684Z,75.16
2018-12-15T10:58:46.073Z,74.73
2018-12-15T11:01:19.070Z,77.30
2018-12-15T11:03:46.484Z,75.44
2018-12-15T11:06:13.993Z,75.25
2018-12-15T11:08:41.406Z,76.89
2018-12-15T11:11:08.791Z,76.10
2018-12-15T11:13:36.187Z,75.95
2018-12-15T11:16:03.587Z,74.41
2018-12-15T11:18:30.976Z,74.96
2018-12-15T11:20:58.376Z,75.25
2018-12-15T11:23:25.785Z,74.52
2018-12-15T11:25:53.172Z,74.93
2018-12-15T11:28:20.571Z,74.29
2018-12-15T11:30:47.978Z,74.69
2018-12-15T11:33:15.373Z,74.11
2018-12-15T11:35:42.761Z,73.75
2018-12-15T11:38:10.162Z,74.22
2018-12-15T11:40:37.604Z,73.87
2018-12-15T11:43:04.991Z,74.10
2018-12-15T11:45:32.438Z,75.12
2018-12-15T11:47:59.845Z,75.22
2018-12-15T11:50:27.236Z,75.64
2018-12-15T11:52:54.625Z,74.53
2018-12-15T11:55:22.033Z,75.06
2018-12-15T11:57:49.437Z,75.57
2018-12-15T12:00:17.776Z,75.30
2018-12-15T12:02:45.176Z,75.38
2018-12-15T12:05:12.637Z,76.04
2018-12-15T12:07:40.048Z,74.51
2018-12-15T12:10:07.751Z,75.18
2018-12-15T12:12:35.137Z,74.64
2018-12-15T12:15:02.540Z,74.58
2018-12-15T12:17:29.948Z,75.97
2018-12-15T12:19:57.337Z,76.46
2018-12-15T12:22:24.729Z,76.42
2018-12-15T12:24:52.190Z,77.14
2018-12-15T12:27:19.589Z,75.59
2018-12-15T12:29:46.981Z,74.55
2018-12-15T12:32:14.383Z,74.19
2018-12-15T12:34:41.784Z,74.82
2018-12-15T12:37:09.178Z,74.23
2018-12-15T12:39:36.585Z,73.57
2018-12-15T12:42:04.070Z,73.77
2018-12-15T12:44:31.464Z,74.43
2018-12-15T12:46:58.869Z,75.34
2018-12-15T12:49:26.256Z,75.73
2018-12-15T12:51:53.649Z,73.62
2018-12-15T12:54:21.046Z,75.25
2018-12-15T12:56:48.437Z,73.62
2018-12-15T12:59:15.828Z,74.25
2018-12-15T13:01:43.248Z,73.79
2018-12-15T13:04:10.636Z,73.99
2018-12-15T13:06:38.025Z,74.29
2018-12-15T13:09:06.329Z,74.72
2018-12-15T13:11:33.729Z,74.67
2018-12-15T13:14:01.279Z,74.20
2018-12-15T13:16:28.924Z,73.96
2018-12-15T13:18:56.340Z,74.35
2018-12-15T13:21:23.728Z,74.42
2018-12-15T13:23:51.128Z,75.51
2018-12-15T13:26:18.520Z,75.35
2018-12-15T13:28:45.964Z,75.58
2018-12-15T13:31:14.145Z,75.60
2018-12-15T13:33:41.583Z,73.62
2018-12-15T13:36:12.850Z,74.17
2018-12-15T13:38:40.533Z,74.63
2018-12-15T13:41:08.033Z,74.49
2018-12-15T13:43:35.529Z,75.02
2018-12-15T13:46:02.927Z,76.11
2018-12-15T13:48:30.317Z,74.97
2018-12-15T13:50:57.752Z,75.25
2018-12-15T13:53:25.209Z,74.29
2018-12-15T13:55:52.600Z,75.08
2018-12-15T13:58:19.996Z,74.31
2018-12-15T14:00:47.416Z,75.27
2018-12-15T14:03:14.804Z,74.34
2018-12-15T14:05:42.188Z,75.78
2018-12-15T14:08:09.593Z,75.51
2018-12-15T14:10:36.990Z,75.44
2018-12-15T14:13:04.420Z,75.86
2018-12-15T14:15:31.844Z,75.93
2018-12-15T14:17:59.236Z,76.11
2018-12-15T14:20:26.682Z,76.76
2018-12-15T14:22:54.092Z,76.27
2018-12-15T14:25:21.485Z,75.55
2018-12-15T14:27:48.878Z,77.16
2018-12-15T14:30:16.289Z,76.54
2018-12-15T14:32:43.728Z,76.07
2018-12-15T14:35:11.172Z,76.25
2018-12-15T14:37:38.581Z,77.44
2018-12-15T14:40:06.273Z,78.38
2018-12-15T14:42:33.717Z,77.56
2018-12-15T14:45:01.120Z,77.91
2018-12-15T14:47:28.514Z,77.33
2018-12-15T14:49:55.908Z,77.90
2018-12-15T14:52:23.360Z,77.18
2018-12-15T14:54:50.752Z,77.11
2018-12-15T14:57:20.102Z,78.27
2018-12-15T14:59:47.513Z,79.54
2018-12-15T15:02:14.902Z,78.32
2018-12-15T15:04:42.296Z,78.08
2018-12-15T15:07:09.716Z,77.86
2018-12-15T15:09:37.117Z,77.33
2018-12-15T15:12:04.517Z,77.23
2018-12-15T15:14:31.945Z,77.73
2018-12-15T15:16:59.364Z,77.31
2018-12-15T15:19:26.760Z,77.92
2018-12-15T15:22:01.021Z,77.49
2018-12-15T15:24:29.369Z,77.12
2018-12-15T15:26:56.769Z,76.84
2018-12-15T15:29:24.175Z,77.12
2018-12-15T15:31:51.577Z,78.13
2018-12-15T15:34:18.997Z,78.31
2018-12-15T15:36:46.409Z,78.32
2018-12-15T15:39:13.808Z,80.06
2018-12-15T15:41:41.209Z,78.21
2018-12-15T15:44:08.621Z,78.95
2018-12-15T15:46:36.016Z,79.50
2018-12-15T15:49:03.463Z,78.75
2018-12-15T15:51:30.967Z,77.92
2018-12-15T15:53:58.355Z,78.62
2018-12-15T15:56:25.759Z,79.78
2018-12-15T15:58:53.169Z,78.96
2018-12-15T16:01:20.573Z,77.93
2018-12-15T16:03:47.966Z,79.23
2018-12-15T16:06:15.373Z,79.05
2018-12-15T16:08:42.765Z,78.74
2018-12-15T16:11:10.164Z,77.63
2018-12-15T16:13:37.569Z,80.13
2018-12-15T16:16:08.848Z,78.58
2018-12-15T16:18:36.249Z,77.79
2018-12-15T16:21:03.713Z,77.51
2018-12-15T16:23:31.109Z,77.82
2018-12-15T16:25:58.502Z,77.36
2018-12-15T16:28:25.904Z,77.09
2018-12-15T16:30:55.066Z,78.00
2018-12-15T16:33:22.476Z,77.89
2018-12-15T16:35:51.306Z,77.26
2018-12-15T16:38:18.701Z,76.45
2018-12-15T16:40:46.112Z,76.88
2018-12-15T16:43:13.526Z,76.46
2018-12-15T16:45:40.969Z,77.00
2018-12-15T16:48:08.375Z,76.68
2018-12-15T16:50:35.780Z,76.67
2018-12-15T16:53:03.177Z,77.50
2018-12-15T16:55:30.577Z,76.07
2018-12-15T16:57:57.987Z,76.67
2018-12-15T17:00:25.385Z,76.63
2018-12-15T17:02:52.833Z,76.30
2018-12-15T17:05:20.244Z,77.07
2018-12-15T17:07:47.724Z,76.66
2018-12-15T17:10:15.164Z,77.23
2018-12-15T17:12:42.616Z,78.04
2018-12-15T17:15:10.104Z,77.50
2018-12-15T17:17:37.549Z,77.46
2018-12-15T17:20:07.262Z,76.33
2018-12-15T17:22:34.665Z,76.94
2018-12-15T17:25:02.069Z,77.03
2018-12-15T17:27:29.905Z,76.33
2018-12-15T17:29:58.447Z,77.30
2018-12-15T17:32:26.064Z,77.22
2018-12-15T17:34:53.519Z,76.49
2018-12-15T17:37:20.963Z,78.21
2018-12-15T17:39:48.357Z,77.10
2018-12-15T17:42:15.805Z,77.14
2018-12-15T17:44:43.193Z,77.15
2018-12-15T17:47:10.596Z,77.29
2018-12-15T17:49:38.001Z,78.08
2018-12-15T17:52:05.392Z,77.58
2018-12-15T17:54:32.788Z,78.14
2018-12-15T17:57:00.200Z,79.67
2018-12-15T17:59:27.585Z,78.58
2018-12-15T18:01:55.121Z,78.21
2018-12-15T18:04:22.529Z,78.53
2018-12-15T18:06:50.012Z,78.17
2018-12-15T18:09:17.464Z,78.73
2018-12-15T18:11:44.921Z,79.27
2018-12-15T18:14:12.317Z,80.00
2018-12-15T18:16:39.712Z,79.77
2018-12-15T18:19:07.466Z,81.04
2018-12-15T18:21:34.869Z,79.80
2018-12-15T18:24:02.348Z,80.58
2018-12-15T18:26:29.756Z,78.79
2018-12-15T18:28:57.150Z,77.78
2018-12-15T18:31:24.643Z,78.89
2018-12-15T18:33:52.037Z,78.35
2018-12-15T18:36:19.441Z,77.52
2018-12-15T18:38:46.837Z,77.71
2018-12-15T18:41:14.248Z,77.10
2018-12-15T18:43:41.652Z,78.16
2018-12-15T18:46:09.106Z,78.08
2018-12-15T18:48:36.552Z,78.58
2018-12-15T18:51:03.956Z,78.74
2018-12-15T18:53:31.354Z,78.31
2018-12-15T18:55:58.809Z,79.28
2018-12-15T18:58:26.209Z,79.19
2018-12-15T19:00:53.604Z,78.67
2018-12-15T19:03:21.009Z,78.99
2018-12-15T19:05:48.410Z,79.15
2018-12-15T19:08:15.796Z,78.31
2018-12-15T19:10:43.209Z,78.94
2018-12-15T19:13:10.605Z,78.96
2018-12-15T19:15:38.059Z,78.74
2018-12-15T19:18:05.592Z,78.08
2018-12-15T19:20:33.105Z,79.88
2018-12-15T19:23:00.540Z,79.57
2018-12-15T19:25:28.004Z,78.96
2018-12-15T19:27:55.404Z,79.75
2018-12-15T19:30:22.810Z,79.88
2018-12-15T19:32:50.220Z,79.61
2018-12-15T19:35:17.623Z,81.28
2018-12-15T19:37:45.062Z,81.97
2018-12-15T19:40:12.471Z,81.84
2018-12-15T19:42:39.868Z,83.87
2018-12-15T19:45:08.177Z,82.40
2018-12-15T19:47:36.051Z,82.58
2018-12-15T19:50:05.040Z,84.92
2018-12-15T19:52:32.446Z,83.87
2018-12-15T19:54:59.858Z,83.83
2018-12-15T19:57:27.308Z,84.22
2018-12-15T19:59:54.718Z,83.97
2018-12-15T20:02:22.176Z,84.81
2018-12-15T20:04:49.581Z,86.14
2018-12-15T20:07:16.980Z,84.77
2018-12-15T20:09:44.393Z,85.19
2018-12-15T20:12:11.792Z,85.89
2018-12-15T20:14:39.190Z,85.83
2018-12-15T20:17:07.536Z,86.51
2018-12-15T20:19:34.925Z,86.92
2018-12-15T20:22:02.316Z,87.75
2018-12-15T20:24:30.724Z,87.38
2018-12-15T20:26:58.125Z,87.72
2018-12-15T20:29:26.441Z,88.14
2018-12-15T20:31:54.884Z,88.81
2018-12-15T20:34:22.292Z,89.40
2018-12-15T20:36:50.706Z,89.62
2018-12-15T20:39:19.052Z,89.75
2018-12-15T20:41:46.453Z,89.59
2018-12-15T20:44:13.897Z,90.26
2018-12-15T20:46:42.248Z,91.00
2018-12-15T20:49:09.682Z,90.83
2018-12-15T20:51:42.666Z,89.80
2018-12-15T20:54:06.886Z,88.84
2018-12-15T20:56:34.281Z,88.69
2018-12-15T20:59:01.675Z,89.52
2018-12-15T21:01:30.100Z,88.65
2018-12-15T21:03:57.512Z,90.56
2018-12-15T21:06:24.913Z,90.79
2018-12-15T21:08:52.321Z,89.73
2018-12-15T21:11:24.144Z,89.76
2018-12-15T21:13:49.108Z,90.63
2018-12-15T21:16:16.520Z,90.60
2018-12-15T21:18:43.972Z,90.42
2018-12-15T21:21:11.413Z,91.48
2018-12-15T21:23:39.928Z,90.15
2018-12-15T21:26:07.324Z,91.00
2018-12-15T21:28:34.829Z,91.93
2018-12-15T21:31:02.236Z,91.81
2018-12-15T21:33:29.646Z,92.49
2018-12-15T21:35:58.021Z,93.65
2018-12-15T21:38:25.433Z,92.57
2018-12-15T21:40:52.852Z,93.41
2018-12-15T21:43:21.216Z,93.51
2018-12-15T21:45:48.633Z,93.78
2018-12-15T21:48:16.037Z,93.99
2018-12-15T21:50:43.498Z,94.16
2018-12-15T21:53:10.897Z,93.50
2018-12-15T21:55:38.296Z,94.08
2018-12-15T21:58:05.696Z,94.37
2018-12-15T22:00:33.110Z,95.44
2018-12-15T22:03:00.601Z,96.12
2018-12-15T22:05:27.985Z,96.81
2018-12-15T22:07:57.041Z,96.96
2018-12-15T22:10:24.610Z,95.47
2018-12-15T22:12:52.010Z,95.37
2018-12-15T22:15:19.433Z,95.74
2018-12-15T22:17:46.921Z,95.62
2018-12-15T22:20:14.668Z,95.94
2018-12-15T22:22:42.241Z,95.66
2018-12-15T22:25:09.642Z,95.76
2018-12-15T22:27:37.036Z,95.27
2018-12-15T22:30:06.085Z,94.22
2018-12-15T22:32:33.481Z,95.39
2018-12-15T22:35:00.921Z,94.20
2018-12-15T22:37:28.322Z,95.20
2018-12-15T22:39:55.716Z,94.42
2018-12-15T22:42:23.117Z,94.00
2018-12-15T22:44:50.525Z,94.95
2018-12-15T22:47:17.925Z,94.40
2018-12-15T22:49:45.349Z,94.56
2018-12-15T22:52:12.928Z,93.98
2018-12-15T22:54:40.330Z,94.67
2018-12-15T22:57:07.738Z,94.70
2018-12-15T22:59:35.242Z,94.60
2018-12-15T23:02:02.684Z,93.48
2018-12-15T23:04:30.077Z,94.25
2018-12-15T23:06:57.497Z,94.31
2018-12-15T23:09:24.940Z,94.51
2018-12-15T23:11:52.429Z,93.85
2018-12-15T23:14:19.844Z,94.61
2018-12-15T23:16:47.301Z,94.07
2018-12-15T23:19:14.713Z,93.75
2018-12-15T23:21:42.133Z,93.34
2018-12-15T23:24:09.529Z,93.84
2018-12-15T23:26:36.929Z,94.05
2018-12-15T23:29:04.481Z,94.55
2018-12-15T23:31:31.928Z,94.84
2018-12-15T23:33:59.381Z,95.55
2018-12-15T23:36:27.744Z,94.04
2018-12-15T23:38:55.148Z,93.61
2018-12-15T23:41:22.544Z,94.05
2018-12-15T23:43:49.956Z,93.04
2018-12-15T23:46:17.359Z,93.17
2018-12-15T23:48:44.753Z,93.50
2018-12-15T23:51:12.228Z,92.37
2018-12-15T23:53:39.616Z,92.52
2018-12-15T23:56:07.064Z,91.61
2018-12-15T23:58:34.525Z,93.09
